sensor_id;sensor_type;location;lat;lon;timestamp;P1;durP1;ratioP1;P2;durP2;ratioP2
64738;SDS011;51175;51.186;0.276;2023-06-22T00:00:05;10.52;;;5.80;;
64738;SDS011;51175;51.186;0.276;2023-06-22T00:00:40;9.60;;;6.70;;
64738;SDS011;51175;51.186;0.276;2023-06-22T00:01:12;9.57;;;5.47;;
64738;SDS011;51175;51.186;0.276;2023-06-22T00:01:42;7.00;;;5.85;;
64738;SDS011;51175;51.186;0.276;2023-06-22T00:02:13;9.52;;;6.35;;
64738;SDS011;51175;51.186;0.276;2023-06-22T00:02:43;8.30;;;5.65;;
64738;SDS011;51175;51.186;0.276;2023-06-22T00:03:14;13.05;;;6.75;;
64738;SDS011;51175;51.186;0.276;2023-06-22T00:03:44;8.10;;;6.30;;
64738;SDS011;51175;51.186;0.276;2023-06-22T00:04:15;8.25;;;5.57;;
64738;SDS011;51175;51.186;0.276;2023-06-22T00:04:45;8.77;;;6.47;;
64738;SDS011;51175;51.186;0.276;2023-06-22T00:05:16;11.45;;;6.65;;
64738;SDS011;51175;51.186;0.276;2023-06-22T00:05:47;8.25;;;5.15;;
64738;SDS011;51175;51.186;0.276;2023-06-22T00:06:17;10.18;;;6.25;;
64738;SDS011;51175;51.186;0.276;2023-06-22T00:06:48;9.80;;;5.68;;
64738;SDS011;51175;51.186;0.276;2023-06-22T00:07:18;9.57;;;6.00;;
64738;SDS011;51175;51.186;0.276;2023-06-22T00:07:49;10.80;;;7.00;;
64738;SDS011;51175;51.186;0.276;2023-06-22T00:08:19;9.77;;;5.50;;
64738;SDS011;51175;51.186;0.276;2023-06-22T00:08:50;13.25;;;6.45;;
64738;SDS011;51175;51.186;0.276;2023-06-22T00:09:20;8.35;;;5.50;;
64738;SDS011;51175;51.186;0.276;2023-06-22T00:09:51;10.43;;;5.97;;
64738;SDS011;51175;51.186;0.276;2023-06-22T00:10:21;7.65;;;5.95;;
64738;SDS011;51175;51.186;0.276;2023-06-22T00:10:51;8.98;;;5.90;;
64738;SDS011;51175;51.186;0.276;2023-06-22T00:11:22;8.80;;;5.80;;
64738;SDS011;51175;51.186;0.276;2023-06-22T00:11:53;9.23;;;5.30;;
64738;SDS011;51175;51.186;0.276;2023-06-22T00:12:23;9.23;;;5.38;;
64738;SDS011;51175;51.186;0.276;2023-06-22T00:12:54;7.68;;;5.53;;
64738;SDS011;51175;51.186;0.276;2023-06-22T00:13:24;9.50;;;5.80;;
64738;SDS011;51175;51.186;0.276;2023-06-22T00:13:55;11.50;;;5.80;;
64738;SDS011;51175;51.186;0.276;2023-06-22T00:14:25;11.15;;;6.32;;
64738;SDS011;51175;51.186;0.276;2023-06-22T00:14:55;7.00;;;5.18;;
64738;SDS011;51175;51.186;0.276;2023-06-22T00:15:26;7.93;;;5.25;;
64738;SDS011;51175;51.186;0.276;2023-06-22T00:15:56;9.50;;;5.85;;
64738;SDS011;51175;51.186;0.276;2023-06-22T00:16:27;8.60;;;5.88;;
64738;SDS011;51175;51.186;0.276;2023-06-22T00:16:57;7.93;;;5.43;;
64738;SDS011;51175;51.186;0.276;2023-06-22T00:17:29;8.68;;;5.28;;
64738;SDS011;51175;51.186;0.276;2023-06-22T00:17:59;7.10;;;5.75;;
64738;SDS011;51175;51.186;0.276;2023-06-22T00:18:30;8.73;;;5.93;;
64738;SDS011;51175;51.186;0.276;2023-06-22T00:19:01;7.22;;;4.68;;
64738;SDS011;51175;51.186;0.276;2023-06-22T00:19:33;8.40;;;5.95;;
64738;SDS011;51175;51.186;0.276;2023-06-22T00:20:05;6.50;;;4.93;;
64738;SDS011;51175;51.186;0.276;2023-06-22T00:20:37;8.05;;;5.20;;
64738;SDS011;51175;51.186;0.276;2023-06-22T00:21:07;9.65;;;5.68;;
64738;SDS011;51175;51.186;0.276;2023-06-22T00:21:38;10.40;;;5.50;;
64738;SDS011;51175;51.186;0.276;2023-06-22T00:22:08;8.93;;;5.28;;
64738;SDS011;51175;51.186;0.276;2023-06-22T00:22:39;7.47;;;4.95;;
64738;SDS011;51175;51.186;0.276;2023-06-22T00:23:09;8.82;;;5.60;;
64738;SDS011;51175;51.186;0.276;2023-06-22T00:23:40;8.65;;;5.55;;
64738;SDS011;51175;51.186;0.276;2023-06-22T00:24:11;7.38;;;4.78;;
64738;SDS011;51175;51.186;0.276;2023-06-22T00:24:41;6.90;;;4.45;;
64738;SDS011;51175;51.186;0.276;2023-06-22T00:25:12;8.27;;;4.95;;
64738;SDS011;51175;51.186;0.276;2023-06-22T00:25:42;10.15;;;6.07;;
64738;SDS011;51175;51.186;0.276;2023-06-22T00:26:13;8.38;;;4.80;;
64738;SDS011;51175;51.186;0.276;2023-06-22T00:26:44;6.72;;;4.60;;
64738;SDS011;51175;51.186;0.276;2023-06-22T00:27:14;7.60;;;5.10;;
64738;SDS011;51175;51.186;0.276;2023-06-22T00:27:44;7.55;;;4.85;;
64738;SDS011;51175;51.186;0.276;2023-06-22T00:28:15;7.20;;;4.72;;
64738;SDS011;51175;51.186;0.276;2023-06-22T00:28:45;9.43;;;5.47;;
64738;SDS011;51175;51.186;0.276;2023-06-22T00:29:16;7.90;;;5.53;;
64738;SDS011;51175;51.186;0.276;2023-06-22T00:29:47;8.13;;;4.93;;
64738;SDS011;51175;51.186;0.276;2023-06-22T00:30:17;5.70;;;4.45;;
64738;SDS011;51175;51.186;0.276;2023-06-22T00:30:49;6.20;;;4.57;;
64738;SDS011;51175;51.186;0.276;2023-06-22T00:31:19;7.28;;;4.65;;
64738;SDS011;51175;51.186;0.276;2023-06-22T00:31:50;7.25;;;4.68;;
64738;SDS011;51175;51.186;0.276;2023-06-22T00:32:20;7.60;;;5.38;;
64738;SDS011;51175;51.186;0.276;2023-06-22T00:32:50;6.45;;;4.32;;
64738;SDS011;51175;51.186;0.276;2023-06-22T00:33:21;6.97;;;4.80;;
64738;SDS011;51175;51.186;0.276;2023-06-22T00:33:51;7.45;;;5.20;;
64738;SDS011;51175;51.186;0.276;2023-06-22T00:34:22;7.10;;;4.68;;
64738;SDS011;51175;51.186;0.276;2023-06-22T00:34:52;8.18;;;4.75;;
64738;SDS011;51175;51.186;0.276;2023-06-22T00:35:22;6.38;;;4.60;;
64738;SDS011;51175;51.186;0.276;2023-06-22T00:35:53;6.82;;;5.20;;
64738;SDS011;51175;51.186;0.276;2023-06-22T00:36:23;7.70;;;4.38;;
64738;SDS011;51175;51.186;0.276;2023-06-22T00:36:54;6.93;;;4.38;;
64738;SDS011;51175;51.186;0.276;2023-06-22T00:37:25;6.85;;;4.63;;
64738;SDS011;51175;51.186;0.276;2023-06-22T00:37:57;8.38;;;4.90;;
64738;SDS011;51175;51.186;0.276;2023-06-22T00:38:32;8.43;;;4.95;;
64738;SDS011;51175;51.186;0.276;2023-06-22T00:39:02;6.43;;;4.38;;
64738;SDS011;51175;51.186;0.276;2023-06-22T00:39:33;6.70;;;4.63;;
64738;SDS011;51175;51.186;0.276;2023-06-22T00:40:04;7.78;;;4.55;;
64738;SDS011;51175;51.186;0.276;2023-06-22T00:40:35;7.53;;;5.07;;
64738;SDS011;51175;51.186;0.276;2023-06-22T00:41:06;5.10;;;4.45;;
64738;SDS011;51175;51.186;0.276;2023-06-22T00:41:36;9.15;;;5.05;;
64738;SDS011;51175;51.186;0.276;2023-06-22T00:42:06;6.05;;;4.57;;
64738;SDS011;51175;51.186;0.276;2023-06-22T00:42:40;7.05;;;6.07;;
64738;SDS011;51175;51.186;0.276;2023-06-22T00:43:11;6.45;;;4.13;;
64738;SDS011;51175;51.186;0.276;2023-06-22T00:43:41;7.72;;;4.80;;
64738;SDS011;51175;51.186;0.276;2023-06-22T00:44:12;7.53;;;4.57;;
64738;SDS011;51175;51.186;0.276;2023-06-22T00:44:42;6.15;;;4.60;;
64738;SDS011;51175;51.186;0.276;2023-06-22T00:45:14;8.18;;;5.00;;
64738;SDS011;51175;51.186;0.276;2023-06-22T00:45:45;6.95;;;5.03;;
64738;SDS011;51175;51.186;0.276;2023-06-22T00:46:16;10.60;;;4.47;;
64738;SDS011;51175;51.186;0.276;2023-06-22T00:46:46;7.82;;;4.95;;
64738;SDS011;51175;51.186;0.276;2023-06-22T00:47:17;5.70;;;4.18;;
64738;SDS011;51175;51.186;0.276;2023-06-22T00:47:52;6.85;;;4.00;;
64738;SDS011;51175;51.186;0.276;2023-06-22T00:48:23;9.27;;;4.80;;
64738;SDS011;51175;51.186;0.276;2023-06-22T00:48:54;5.03;;;3.97;;
64738;SDS011;51175;51.186;0.276;2023-06-22T00:49:27;7.22;;;4.68;;
64738;SDS011;51175;51.186;0.276;2023-06-22T00:49:58;6.25;;;3.85;;
64738;SDS011;51175;51.186;0.276;2023-06-22T00:50:29;9.25;;;5.15;;
64738;SDS011;51175;51.186;0.276;2023-06-22T00:51:05;7.00;;;4.68;;
64738;SDS011;51175;51.186;0.276;2023-06-22T00:51:35;5.57;;;3.70;;
64738;SDS011;51175;51.186;0.276;2023-06-22T00:52:08;6.88;;;4.40;;
64738;SDS011;51175;51.186;0.276;2023-06-22T00:52:44;5.82;;;4.47;;
64738;SDS011;51175;51.186;0.276;2023-06-22T00:53:16;7.15;;;4.43;;
64738;SDS011;51175;51.186;0.276;2023-06-22T00:53:48;7.28;;;4.18;;
64738;SDS011;51175;51.186;0.276;2023-06-22T00:54:19;6.00;;;4.70;;
64738;SDS011;51175;51.186;0.276;2023-06-22T00:54:54;5.00;;;4.10;;
64738;SDS011;51175;51.186;0.276;2023-06-22T00:55:26;6.65;;;4.07;;
64738;SDS011;51175;51.186;0.276;2023-06-22T00:55:58;6.50;;;4.15;;
64738;SDS011;51175;51.186;0.276;2023-06-22T00:56:29;6.20;;;4.18;;
64738;SDS011;51175;51.186;0.276;2023-06-22T00:57:00;8.95;;;4.22;;
64738;SDS011;51175;51.186;0.276;2023-06-22T00:57:30;5.97;;;4.07;;
64738;SDS011;51175;51.186;0.276;2023-06-22T00:58:02;6.97;;;4.50;;
64738;SDS011;51175;51.186;0.276;2023-06-22T00:58:32;7.03;;;3.85;;
64738;SDS011;51175;51.186;0.276;2023-06-22T00:59:03;5.72;;;4.10;;
64738;SDS011;51175;51.186;0.276;2023-06-22T00:59:33;6.35;;;4.50;;
64738;SDS011;51175;51.186;0.276;2023-06-22T01:00:04;6.00;;;4.10;;
64738;SDS011;51175;51.186;0.276;2023-06-22T01:00:38;5.43;;;4.03;;
64738;SDS011;51175;51.186;0.276;2023-06-22T01:01:09;6.28;;;3.83;;
64738;SDS011;51175;51.186;0.276;2023-06-22T01:01:39;6.63;;;3.42;;
64738;SDS011;51175;51.186;0.276;2023-06-22T01:02:11;5.53;;;4.03;;
64738;SDS011;51175;51.186;0.276;2023-06-22T01:02:42;5.70;;;3.97;;
64738;SDS011;51175;51.186;0.276;2023-06-22T01:03:15;7.35;;;4.47;;
64738;SDS011;51175;51.186;0.276;2023-06-22T01:03:47;6.68;;;4.10;;
64738;SDS011;51175;51.186;0.276;2023-06-22T01:04:18;6.10;;;4.05;;
64738;SDS011;51175;51.186;0.276;2023-06-22T01:04:48;6.80;;;3.90;;
64738;SDS011;51175;51.186;0.276;2023-06-22T01:05:19;6.28;;;4.25;;
64738;SDS011;51175;51.186;0.276;2023-06-22T01:05:50;5.57;;;4.22;;
64738;SDS011;51175;51.186;0.276;2023-06-22T01:06:27;7.10;;;4.13;;
64738;SDS011;51175;51.186;0.276;2023-06-22T01:09:30;6.43;;;3.75;;
64738;SDS011;51175;51.186;0.276;2023-06-22T01:11:23;5.85;;;3.70;;
64738;SDS011;51175;51.186;0.276;2023-06-22T01:12:00;6.40;;;3.67;;
64738;SDS011;51175;51.186;0.276;2023-06-22T01:12:42;5.75;;;3.80;;
64738;SDS011;51175;51.186;0.276;2023-06-22T01:13:29;4.85;;;3.92;;
64738;SDS011;51175;51.186;0.276;2023-06-22T01:14:10;7.43;;;4.10;;
64738;SDS011;51175;51.186;0.276;2023-06-22T01:15:44;5.63;;;4.13;;
64738;SDS011;51175;51.186;0.276;2023-06-22T01:16:20;5.45;;;3.72;;
64738;SDS011;51175;51.186;0.276;2023-06-22T01:16:55;5.32;;;3.40;;
64738;SDS011;51175;51.186;0.276;2023-06-22T01:17:27;4.47;;;3.58;;
64738;SDS011;51175;51.186;0.276;2023-06-22T01:17:59;8.48;;;4.53;;
64738;SDS011;51175;51.186;0.276;2023-06-22T01:18:34;9.45;;;5.72;;
64738;SDS011;51175;51.186;0.276;2023-06-22T01:19:09;8.60;;;4.57;;
64738;SDS011;51175;51.186;0.276;2023-06-22T01:19:49;6.50;;;4.10;;
64738;SDS011;51175;51.186;0.276;2023-06-22T01:20:25;7.15;;;4.18;;
64738;SDS011;51175;51.186;0.276;2023-06-22T01:20:58;7.88;;;4.75;;
64738;SDS011;51175;51.186;0.276;2023-06-22T01:21:30;6.65;;;4.18;;
64738;SDS011;51175;51.186;0.276;2023-06-22T01:22:02;6.53;;;4.63;;
64738;SDS011;51175;51.186;0.276;2023-06-22T01:22:45;6.25;;;4.40;;
64738;SDS011;51175;51.186;0.276;2023-06-22T01:24:16;5.40;;;3.47;;
64738;SDS011;51175;51.186;0.276;2023-06-22T01:25:45;5.22;;;3.53;;
64738;SDS011;51175;51.186;0.276;2023-06-22T01:26:37;8.27;;;3.67;;
64738;SDS011;51175;51.186;0.276;2023-06-22T01:28:24;5.07;;;3.58;;
64738;SDS011;51175;51.186;0.276;2023-06-22T01:29:13;5.25;;;4.22;;
64738;SDS011;51175;51.186;0.276;2023-06-22T01:29:44;7.47;;;4.22;;
64738;SDS011;51175;51.186;0.276;2023-06-22T01:30:16;5.65;;;3.90;;
64738;SDS011;51175;51.186;0.276;2023-06-22T01:30:48;7.35;;;4.15;;
64738;SDS011;51175;51.186;0.276;2023-06-22T01:31:33;4.72;;;3.58;;
64738;SDS011;51175;51.186;0.276;2023-06-22T01:32:05;5.63;;;4.18;;
64738;SDS011;51175;51.186;0.276;2023-06-22T01:32:38;5.85;;;3.40;;
64738;SDS011;51175;51.186;0.276;2023-06-22T01:33:10;5.95;;;3.75;;
64738;SDS011;51175;51.186;0.276;2023-06-22T01:33:43;6.55;;;4.03;;
64738;SDS011;51175;51.186;0.276;2023-06-22T01:34:16;6.15;;;4.07;;
64738;SDS011;51175;51.186;0.276;2023-06-22T01:34:47;5.47;;;3.85;;
64738;SDS011;51175;51.186;0.276;2023-06-22T01:35:19;6.40;;;4.53;;
64738;SDS011;51175;51.186;0.276;2023-06-22T01:35:51;5.35;;;3.97;;
64738;SDS011;51175;51.186;0.276;2023-06-22T01:36:22;4.90;;;3.85;;
64738;SDS011;51175;51.186;0.276;2023-06-22T01:36:54;6.10;;;4.40;;
64738;SDS011;51175;51.186;0.276;2023-06-22T01:37:25;5.28;;;3.78;;
64738;SDS011;51175;51.186;0.276;2023-06-22T01:37:57;6.28;;;4.38;;
64738;SDS011;51175;51.186;0.276;2023-06-22T01:38:28;6.38;;;4.20;;
64738;SDS011;51175;51.186;0.276;2023-06-22T01:39:00;6.40;;;4.15;;
64738;SDS011;51175;51.186;0.276;2023-06-22T01:39:33;9.30;;;4.35;;
64738;SDS011;51175;51.186;0.276;2023-06-22T01:40:05;5.32;;;3.75;;
64738;SDS011;51175;51.186;0.276;2023-06-22T01:40:38;4.80;;;3.70;;
64738;SDS011;51175;51.186;0.276;2023-06-22T01:41:08;7.60;;;4.40;;
64738;SDS011;51175;51.186;0.276;2023-06-22T01:41:42;7.20;;;4.85;;
64738;SDS011;51175;51.186;0.276;2023-06-22T01:42:13;5.40;;;3.50;;
64738;SDS011;51175;51.186;0.276;2023-06-22T01:42:44;7.05;;;4.10;;
64738;SDS011;51175;51.186;0.276;2023-06-22T01:43:15;4.50;;;3.05;;
64738;SDS011;51175;51.186;0.276;2023-06-22T01:43:45;6.43;;;4.55;;
64738;SDS011;51175;51.186;0.276;2023-06-22T01:44:16;5.38;;;3.95;;
64738;SDS011;51175;51.186;0.276;2023-06-22T01:44:47;5.38;;;3.88;;
64738;SDS011;51175;51.186;0.276;2023-06-22T01:45:18;8.25;;;4.95;;
64738;SDS011;51175;51.186;0.276;2023-06-22T01:45:49;5.90;;;3.85;;
64738;SDS011;51175;51.186;0.276;2023-06-22T01:46:21;5.53;;;3.40;;
64738;SDS011;51175;51.186;0.276;2023-06-22T01:46:52;7.70;;;4.72;;
64738;SDS011;51175;51.186;0.276;2023-06-22T01:47:23;6.30;;;4.28;;
64738;SDS011;51175;51.186;0.276;2023-06-22T01:47:54;6.57;;;4.63;;
64738;SDS011;51175;51.186;0.276;2023-06-22T01:48:26;5.43;;;4.20;;
64738;SDS011;51175;51.186;0.276;2023-06-22T01:48:57;6.38;;;4.20;;
64738;SDS011;51175;51.186;0.276;2023-06-22T01:49:27;6.03;;;4.05;;
64738;SDS011;51175;51.186;0.276;2023-06-22T01:49:58;4.78;;;4.03;;
64738;SDS011;51175;51.186;0.276;2023-06-22T01:50:28;6.05;;;3.80;;
64738;SDS011;51175;51.186;0.276;2023-06-22T01:50:59;5.63;;;4.63;;
64738;SDS011;51175;51.186;0.276;2023-06-22T01:51:30;4.97;;;4.00;;
64738;SDS011;51175;51.186;0.276;2023-06-22T01:52:00;5.25;;;3.75;;
64738;SDS011;51175;51.186;0.276;2023-06-22T01:52:31;7.22;;;4.63;;
64738;SDS011;51175;51.186;0.276;2023-06-22T01:53:03;6.45;;;4.55;;
64738;SDS011;51175;51.186;0.276;2023-06-22T01:53:36;4.80;;;3.67;;
64738;SDS011;51175;51.186;0.276;2023-06-22T01:54:07;7.88;;;4.32;;
64738;SDS011;51175;51.186;0.276;2023-06-22T01:54:39;6.88;;;4.55;;
64738;SDS011;51175;51.186;0.276;2023-06-22T01:55:10;6.53;;;4.32;;
64738;SDS011;51175;51.186;0.276;2023-06-22T01:55:40;7.47;;;4.05;;
64738;SDS011;51175;51.186;0.276;2023-06-22T01:56:11;7.03;;;4.25;;
64738;SDS011;51175;51.186;0.276;2023-06-22T01:56:42;6.35;;;4.22;;
64738;SDS011;51175;51.186;0.276;2023-06-22T01:57:12;5.18;;;3.67;;
64738;SDS011;51175;51.186;0.276;2023-06-22T01:57:43;6.10;;;4.03;;
64738;SDS011;51175;51.186;0.276;2023-06-22T01:58:13;7.43;;;3.95;;
64738;SDS011;51175;51.186;0.276;2023-06-22T01:58:50;5.82;;;3.90;;
64738;SDS011;51175;51.186;0.276;2023-06-22T01:59:26;6.63;;;4.05;;
64738;SDS011;51175;51.186;0.276;2023-06-22T02:00:03;8.85;;;5.00;;
64738;SDS011;51175;51.186;0.276;2023-06-22T02:00:37;7.18;;;3.60;;
64738;SDS011;51175;51.186;0.276;2023-06-22T02:01:11;6.50;;;4.45;;
64738;SDS011;51175;51.186;0.276;2023-06-22T02:01:50;4.88;;;3.78;;
64738;SDS011;51175;51.186;0.276;2023-06-22T02:02:29;6.50;;;4.25;;
64738;SDS011;51175;51.186;0.276;2023-06-22T02:03:14;6.93;;;4.43;;
64738;SDS011;51175;51.186;0.276;2023-06-22T02:04:03;6.78;;;4.22;;
64738;SDS011;51175;51.186;0.276;2023-06-22T02:04:55;7.05;;;4.72;;
64738;SDS011;51175;51.186;0.276;2023-06-22T02:05:33;7.70;;;4.45;;
64738;SDS011;51175;51.186;0.276;2023-06-22T02:06:08;5.75;;;4.07;;
64738;SDS011;51175;51.186;0.276;2023-06-22T02:06:43;5.38;;;3.97;;
64738;SDS011;51175;51.186;0.276;2023-06-22T02:07:17;6.70;;;4.50;;
64738;SDS011;51175;51.186;0.276;2023-06-22T02:07:52;7.82;;;5.18;;
64738;SDS011;51175;51.186;0.276;2023-06-22T02:08:31;6.10;;;3.97;;
64738;SDS011;51175;51.186;0.276;2023-06-22T02:09:11;6.57;;;4.57;;
64738;SDS011;51175;51.186;0.276;2023-06-22T02:09:44;5.25;;;4.00;;
64738;SDS011;51175;51.186;0.276;2023-06-22T02:10:17;5.57;;;4.35;;
64738;SDS011;51175;51.186;0.276;2023-06-22T02:10:50;6.65;;;4.43;;
64738;SDS011;51175;51.186;0.276;2023-06-22T02:11:23;7.03;;;4.32;;
64738;SDS011;51175;51.186;0.276;2023-06-22T02:11:57;4.95;;;4.20;;
64738;SDS011;51175;51.186;0.276;2023-06-22T02:12:29;5.82;;;4.10;;
64738;SDS011;51175;51.186;0.276;2023-06-22T02:13:03;7.45;;;4.53;;
64738;SDS011;51175;51.186;0.276;2023-06-22T02:13:36;5.80;;;4.00;;
64738;SDS011;51175;51.186;0.276;2023-06-22T02:14:12;6.18;;;4.38;;
64738;SDS011;51175;51.186;0.276;2023-06-22T02:14:44;7.03;;;4.65;;
64738;SDS011;51175;51.186;0.276;2023-06-22T02:15:16;7.15;;;4.13;;
64738;SDS011;51175;51.186;0.276;2023-06-22T02:15:47;4.82;;;3.95;;
64738;SDS011;51175;51.186;0.276;2023-06-22T02:16:18;6.57;;;4.30;;
64738;SDS011;51175;51.186;0.276;2023-06-22T02:16:49;6.45;;;3.90;;
64738;SDS011;51175;51.186;0.276;2023-06-22T02:17:21;8.43;;;4.25;;
64738;SDS011;51175;51.186;0.276;2023-06-22T02:17:53;5.93;;;4.38;;
64738;SDS011;51175;51.186;0.276;2023-06-22T02:18:23;5.05;;;4.18;;
64738;SDS011;51175;51.186;0.276;2023-06-22T02:18:55;6.28;;;3.67;;
64738;SDS011;51175;51.186;0.276;2023-06-22T02:19:27;8.15;;;4.90;;
64738;SDS011;51175;51.186;0.276;2023-06-22T02:19:57;7.00;;;4.45;;
64738;SDS011;51175;51.186;0.276;2023-06-22T02:20:28;6.88;;;4.00;;
64738;SDS011;51175;51.186;0.276;2023-06-22T02:20:58;9.18;;;4.75;;
64738;SDS011;51175;51.186;0.276;2023-06-22T02:21:29;7.32;;;5.20;;
64738;SDS011;51175;51.186;0.276;2023-06-22T02:22:01;6.22;;;4.43;;
64738;SDS011;51175;51.186;0.276;2023-06-22T02:22:32;6.95;;;4.68;;
64738;SDS011;51175;51.186;0.276;2023-06-22T02:23:02;6.45;;;4.65;;
64738;SDS011;51175;51.186;0.276;2023-06-22T02:23:32;5.90;;;4.28;;
64738;SDS011;51175;51.186;0.276;2023-06-22T02:24:05;4.45;;;4.00;;
64738;SDS011;51175;51.186;0.276;2023-06-22T02:24:36;5.55;;;4.28;;
64738;SDS011;51175;51.186;0.276;2023-06-22T02:25:06;6.40;;;3.90;;
64738;SDS011;51175;51.186;0.276;2023-06-22T02:25:37;6.05;;;4.65;;
64738;SDS011;51175;51.186;0.276;2023-06-22T02:26:07;10.13;;;4.70;;
64738;SDS011;51175;51.186;0.276;2023-06-22T02:26:38;6.88;;;3.90;;
64738;SDS011;51175;51.186;0.276;2023-06-22T02:27:12;7.20;;;4.68;;
64738;SDS011;51175;51.186;0.276;2023-06-22T02:27:42;5.03;;;4.05;;
64738;SDS011;51175;51.186;0.276;2023-06-22T02:28:13;5.10;;;3.90;;
64738;SDS011;51175;51.186;0.276;2023-06-22T02:28:43;5.75;;;4.10;;
64738;SDS011;51175;51.186;0.276;2023-06-22T02:29:14;6.72;;;4.43;;
64738;SDS011;51175;51.186;0.276;2023-06-22T02:29:45;8.85;;;4.65;;
64738;SDS011;51175;51.186;0.276;2023-06-22T02:30:15;5.97;;;4.13;;
64738;SDS011;51175;51.186;0.276;2023-06-22T02:30:46;6.53;;;4.55;;
64738;SDS011;51175;51.186;0.276;2023-06-22T02:31:17;6.22;;;4.20;;
64738;SDS011;51175;51.186;0.276;2023-06-22T02:31:48;5.70;;;4.25;;
64738;SDS011;51175;51.186;0.276;2023-06-22T02:32:18;5.40;;;3.92;;
64738;SDS011;51175;51.186;0.276;2023-06-22T02:32:48;6.65;;;4.60;;
64738;SDS011;51175;51.186;0.276;2023-06-22T02:33:19;6.05;;;4.10;;
64738;SDS011;51175;51.186;0.276;2023-06-22T02:33:49;6.13;;;4.20;;
64738;SDS011;51175;51.186;0.276;2023-06-22T02:34:20;5.88;;;4.25;;
64738;SDS011;51175;51.186;0.276;2023-06-22T02:34:52;5.25;;;3.40;;
64738;SDS011;51175;51.186;0.276;2023-06-22T02:35:23;5.70;;;4.45;;
64738;SDS011;51175;51.186;0.276;2023-06-22T02:35:53;5.35;;;3.55;;
64738;SDS011;51175;51.186;0.276;2023-06-22T02:36:24;4.85;;;4.18;;
64738;SDS011;51175;51.186;0.276;2023-06-22T02:36:56;6.45;;;5.22;;
64738;SDS011;51175;51.186;0.276;2023-06-22T02:37:28;6.43;;;3.85;;
64738;SDS011;51175;51.186;0.276;2023-06-22T02:37:59;5.57;;;3.85;;
64738;SDS011;51175;51.186;0.276;2023-06-22T02:38:31;5.25;;;3.63;;
64738;SDS011;51175;51.186;0.276;2023-06-22T02:39:06;5.68;;;4.00;;
64738;SDS011;51175;51.186;0.276;2023-06-22T02:39:36;5.60;;;3.92;;
64738;SDS011;51175;51.186;0.276;2023-06-22T02:40:07;5.47;;;4.03;;
64738;SDS011;51175;51.186;0.276;2023-06-22T02:40:41;5.68;;;4.20;;
64738;SDS011;51175;51.186;0.276;2023-06-22T02:41:12;7.05;;;4.60;;
64738;SDS011;51175;51.186;0.276;2023-06-22T02:41:43;5.35;;;3.80;;
64738;SDS011;51175;51.186;0.276;2023-06-22T02:42:13;5.00;;;3.88;;
64738;SDS011;51175;51.186;0.276;2023-06-22T02:42:44;6.88;;;4.43;;
64738;SDS011;51175;51.186;0.276;2023-06-22T02:43:14;6.03;;;4.18;;
64738;SDS011;51175;51.186;0.276;2023-06-22T02:43:47;6.55;;;3.95;;
64738;SDS011;51175;51.186;0.276;2023-06-22T02:44:18;5.30;;;3.83;;
64738;SDS011;51175;51.186;0.276;2023-06-22T02:44:49;5.68;;;4.05;;
64738;SDS011;51175;51.186;0.276;2023-06-22T02:45:19;4.88;;;3.75;;
64738;SDS011;51175;51.186;0.276;2023-06-22T02:45:49;5.57;;;4.28;;
64738;SDS011;51175;51.186;0.276;2023-06-22T02:46:20;6.35;;;4.32;;
64738;SDS011;51175;51.186;0.276;2023-06-22T02:46:51;4.75;;;3.55;;
64738;SDS011;51175;51.186;0.276;2023-06-22T02:47:21;6.80;;;4.07;;
64738;SDS011;51175;51.186;0.276;2023-06-22T02:47:52;6.97;;;4.47;;
64738;SDS011;51175;51.186;0.276;2023-06-22T02:48:22;4.90;;;4.35;;
64738;SDS011;51175;51.186;0.276;2023-06-22T02:48:53;5.97;;;3.83;;
64738;SDS011;51175;51.186;0.276;2023-06-22T02:49:23;7.05;;;4.25;;
64738;SDS011;51175;51.186;0.276;2023-06-22T02:49:54;6.20;;;4.38;;
64738;SDS011;51175;51.186;0.276;2023-06-22T02:50:24;6.68;;;3.92;;
64738;SDS011;51175;51.186;0.276;2023-06-22T02:50:55;5.35;;;4.22;;
64738;SDS011;51175;51.186;0.276;2023-06-22T02:51:25;5.45;;;3.83;;
64738;SDS011;51175;51.186;0.276;2023-06-22T02:51:56;6.70;;;4.35;;
64738;SDS011;51175;51.186;0.276;2023-06-22T02:52:27;8.77;;;4.30;;
64738;SDS011;51175;51.186;0.276;2023-06-22T02:52:57;4.47;;;4.07;;
64738;SDS011;51175;51.186;0.276;2023-06-22T02:53:28;7.13;;;4.22;;
64738;SDS011;51175;51.186;0.276;2023-06-22T02:53:58;5.72;;;4.53;;
64738;SDS011;51175;51.186;0.276;2023-06-22T02:54:29;7.20;;;5.03;;
64738;SDS011;51175;51.186;0.276;2023-06-22T02:54:59;5.97;;;4.63;;
64738;SDS011;51175;51.186;0.276;2023-06-22T02:55:30;6.55;;;3.72;;
64738;SDS011;51175;51.186;0.276;2023-06-22T02:56:03;4.95;;;3.97;;
64738;SDS011;51175;51.186;0.276;2023-06-22T02:56:37;6.22;;;4.90;;
64738;SDS011;51175;51.186;0.276;2023-06-22T02:57:07;6.30;;;4.18;;
64738;SDS011;51175;51.186;0.276;2023-06-22T02:57:43;6.45;;;4.47;;
64738;SDS011;51175;51.186;0.276;2023-06-22T02:58:15;4.72;;;3.60;;
64738;SDS011;51175;51.186;0.276;2023-06-22T02:58:46;6.70;;;4.45;;
64738;SDS011;51175;51.186;0.276;2023-06-22T02:59:16;5.97;;;4.55;;
64738;SDS011;51175;51.186;0.276;2023-06-22T02:59:47;6.45;;;4.25;;
64738;SDS011;51175;51.186;0.276;2023-06-22T03:00:18;5.30;;;3.78;;
64738;SDS011;51175;51.186;0.276;2023-06-22T03:00:49;7.88;;;5.38;;
64738;SDS011;51175;51.186;0.276;2023-06-22T03:01:23;6.95;;;4.60;;
64738;SDS011;51175;51.186;0.276;2023-06-22T03:01:54;7.40;;;4.45;;
64738;SDS011;51175;51.186;0.276;2023-06-22T03:02:24;5.85;;;4.70;;
64738;SDS011;51175;51.186;0.276;2023-06-22T03:02:56;8.43;;;4.47;;
64738;SDS011;51175;51.186;0.276;2023-06-22T03:03:27;6.50;;;4.13;;
64738;SDS011;51175;51.186;0.276;2023-06-22T03:03:57;7.05;;;4.88;;
64738;SDS011;51175;51.186;0.276;2023-06-22T03:04:28;6.68;;;4.38;;
64738;SDS011;51175;51.186;0.276;2023-06-22T03:04:58;9.15;;;5.38;;
64738;SDS011;51175;51.186;0.276;2023-06-22T03:05:31;6.38;;;4.53;;
64738;SDS011;51175;51.186;0.276;2023-06-22T03:06:02;8.02;;;4.38;;
64738;SDS011;51175;51.186;0.276;2023-06-22T03:06:33;7.25;;;4.70;;
64738;SDS011;51175;51.186;0.276;2023-06-22T03:07:03;6.68;;;4.18;;
64738;SDS011;51175;51.186;0.276;2023-06-22T03:07:34;5.93;;;4.13;;
64738;SDS011;51175;51.186;0.276;2023-06-22T03:08:04;7.57;;;4.65;;
64738;SDS011;51175;51.186;0.276;2023-06-22T03:08:35;5.78;;;4.68;;
64738;SDS011;51175;51.186;0.276;2023-06-22T03:09:05;5.57;;;4.43;;
64738;SDS011;51175;51.186;0.276;2023-06-22T03:09:36;6.38;;;5.00;;
64738;SDS011;51175;51.186;0.276;2023-06-22T03:10:08;7.93;;;4.70;;
64738;SDS011;51175;51.186;0.276;2023-06-22T03:10:41;6.55;;;4.55;;
64738;SDS011;51175;51.186;0.276;2023-06-22T03:11:12;6.07;;;4.93;;
64738;SDS011;51175;51.186;0.276;2023-06-22T03:11:42;7.18;;;4.95;;
64738;SDS011;51175;51.186;0.276;2023-06-22T03:12:13;8.57;;;5.05;;
64738;SDS011;51175;51.186;0.276;2023-06-22T03:12:43;7.70;;;5.13;;
64738;SDS011;51175;51.186;0.276;2023-06-22T03:13:13;9.95;;;5.07;;
64738;SDS011;51175;51.186;0.276;2023-06-22T03:13:44;8.55;;;4.50;;
64738;SDS011;51175;51.186;0.276;2023-06-22T03:14:16;7.93;;;5.05;;
64738;SDS011;51175;51.186;0.276;2023-06-22T03:14:47;6.88;;;4.32;;
64738;SDS011;51175;51.186;0.276;2023-06-22T03:15:17;7.07;;;4.60;;
64738;SDS011;51175;51.186;0.276;2023-06-22T03:15:48;8.10;;;5.10;;
64738;SDS011;51175;51.186;0.276;2023-06-22T03:16:18;7.80;;;4.63;;
64738;SDS011;51175;51.186;0.276;2023-06-22T03:16:49;7.25;;;4.85;;
64738;SDS011;51175;51.186;0.276;2023-06-22T03:17:20;7.05;;;5.18;;
64738;SDS011;51175;51.186;0.276;2023-06-22T03:17:50;5.60;;;4.60;;
64738;SDS011;51175;51.186;0.276;2023-06-22T03:18:20;6.28;;;4.88;;
64738;SDS011;51175;51.186;0.276;2023-06-22T03:18:52;5.55;;;4.65;;
64738;SDS011;51175;51.186;0.276;2023-06-22T03:19:23;7.03;;;4.97;;
64738;SDS011;51175;51.186;0.276;2023-06-22T03:19:54;8.38;;;4.63;;
64738;SDS011;51175;51.186;0.276;2023-06-22T03:20:24;5.18;;;4.25;;